Time;durP1;ratioP1;P1;durP2;ratioP2;P2;SDS_P1;SDS_P2;PMS_P1;PMS_P2;Temp;Humidity;BMP_temperature;BMP_pressure;BME280_temperature;BME280_humidity;BME280_pressure;Samples;Min_cycle;Max_cycle;Signal;HPM_P1;HPM_P2
2022/11/26 00:02:19;;;;;;;;;;;;;;;19.42;48.77;102193.19;5102349;28;20288;-41
2022/11/26 00:04:45;;;;;;;;;;;;;;;19.43;48.66;102203.16;5097512;28;20019;-44
2022/11/26 00:07:11;;;;;;;;;;;;;;;19.42;48.87;102207.00;5123918;28;19924;-42
2022/11/26 00:09:37;;;;;;;;;;;;;;;19.42;48.81;102199.53;5105850;28;19924;-43
2022/11/26 00:12:13;;;;;;;;;;;;;;;19.41;48.68;102210.84;5115216;28;19924;-40
2022/11/26 00:14:38;;;;;;;;;;;;;;;19.42;48.51;102213.34;5117585;28;19979;-41
2022/11/26 00:17:04;;;;;;;;;;;;;;;19.42;48.84;102207.00;5125342;28;20049;-40
2022/11/26 00:19:30;;;;;;;;;;;;;;;19.42;48.51;102209.75;5125300;27;20371;-41
2022/11/26 00:21:55;;;;;;;;;;;;;;;19.41;48.50;102216.38;5128647;28;19923;-41
2022/11/26 00:24:24;;;;;;;;;;;;;;;19.42;48.86;102213.34;5124715;28;19929;-41
2022/11/26 00:26:50;;;;;;;;;;;;;;;19.42;48.58;102220.81;5123000;28;19923;-43
2022/11/26 00:29:15;;;;;;;;;;;;;;;19.41;48.92;102222.75;5119987;27;19930;-44
2022/11/26 00:31:41;;;;;;;;;;;;;;;19.42;48.64;102223.56;5121367;28;19939;-42
2022/11/26 00:34:06;;;;;;;;;;;;;;;19.40;48.82;102226.59;5117320;28;19923;-41
2022/11/26 00:36:32;;;;;;;;;;;;;;;19.41;48.70;102225.50;5116068;28;20305;-45
2022/11/26 00:39:05;;;;;;;;;;;;;;;19.40;48.59;102226.59;5125026;28;20286;-42
2022/11/26 00:41:32;;;;;;;;;;;;;;;19.42;48.83;102237.38;5122823;28;19978;-41
2022/11/26 00:43:57;;;;;;;;;;;;;;;19.41;48.62;102247.59;5104518;28;19971;-41
2022/11/26 00:46:23;;;;;;;;;;;;;;;19.40;48.93;102245.94;5120070;28;20363;-40
2022/11/26 00:48:49;;;;;;;;;;;;;;;19.41;48.70;102250.38;5107770;28;19932;-42
2022/11/26 00:51:15;;;;;;;;;;;;;;;19.41;48.63;102246.78;5115554;28;20348;-41
2022/11/26 00:53:41;;;;;;;;;;;;;;;19.40;48.83;102253.41;5093933;28;20336;-42
2022/11/26 00:56:08;;;;;;;;;;;;;;;19.41;48.61;102260.59;5097506;28;19938;-47
2022/11/26 00:58:35;;;;;;;;;;;;;;;19.42;48.46;102256.72;5123914;28;19963;-44
2022/11/26 01:01:00;;;;;;;;;;;;;;;19.41;48.82;102261.41;5119706;28;20287;-41
2022/11/26 01:03:26;;;;;;;;;;;;;;;19.41;48.71;102257.81;5121826;28;19923;-43
2022/11/26 01:05:52;;;;;;;;;;;;;;;19.40;48.73;102265.28;5123187;28;20348;-41
2022/11/26 01:08:25;;;;;;;;;;;;;;;19.41;48.93;102277.16;5100836;28;19984;-40
2022/11/26 01:10:51;;;;;;;;;;;;;;;19.41;48.59;102275.22;5098909;28;20323;-42
2022/11/26 01:13:16;;;;;;;;;;;;;;;19.42;48.95;102276.06;5117129;28;20363;-40
2022/11/26 01:15:42;;;;;;;;;;;;;;;19.41;48.62;102274.41;5116328;28;19970;-42
2022/11/26 01:18:12;;;;;;;;;;;;;;;19.41;48.70;102278.00;5117818;28;19928;-41
2022/11/26 01:20:38;;;;;;;;;;;;;;;19.41;48.78;102277.16;5113808;28;19978;-41
2022/11/26 01:23:03;;;;;;;;;;;;;;;19.40;48.82;102275.50;5117790;28;19924;-45
2022/11/26 01:25:29;;;;;;;;;;;;;;;19.41;48.72;102280.75;5119169;28;19927;-42
2022/11/26 01:27:54;;;;;;;;;;;;;;;19.40;48.87;102279.09;5120123;28;20279;-41
2022/11/26 01:30:21;;;;;;;;;;;;;;;19.40;48.81;102289.31;5118988;27;19931;-40
2022/11/26 01:32:47;;;;;;;;;;;;;;;19.41;48.65;102288.22;5116894;28;20014;-41
2022/11/26 01:35:13;;;;;;;;;;;;;;;19.40;48.46;102287.38;5122715;28;19959;-43
2022/11/26 01:37:39;;;;;;;;;;;;;;;19.41;48.53;102283.53;5122589;28;20018;-41
2022/11/26 01:40:18;;;;;;;;;;;;;;;19.40;48.53;102281.84;5123460;28;19930;-43
2022/11/26 01:42:44;;;;;;;;;;;;;;;19.40;48.59;102289.31;5121170;28;19966;-42
2022/11/26 01:45:13;;;;;;;;;;;;;;;19.40;48.77;102281.84;5100211;28;20031;-42
2022/11/26 01:47:38;;;;;;;;;;;;;;;19.41;48.73;102293.75;5123693;28;20014;-43
2022/11/26 01:50:24;;;;;;;;;;;;;;;19.41;48.64;102288.22;5124729;28;19931;-43
2022/11/26 01:52:49;;;;;;;;;;;;;;;19.40;48.72;102292.06;5101574;28;19979;-41
2022/11/26 01:55:15;;;;;;;;;;;;;;;19.40;48.81;102297.59;5121406;28;19934;-41
2022/11/26 01:57:40;;;;;;;;;;;;;;;19.40;48.70;102295.66;5122268;28;19931;-41
2022/11/26 02:00:06;;;;;;;;;;;;;;;19.40;48.87;102294.84;5114283;28;20388;-42
2022/11/26 02:02:32;;;;;;;;;;;;;;;19.40;48.67;102294.84;5119210;28;19942;-43
2022/11/26 02:05:00;;;;;;;;;;;;;;;19.40;48.63;102289.31;5115332;28;19927;-43
2022/11/26 02:07:25;;;;;;;;;;;;;;;19.40;48.79;102283.78;5118783;28;19978;-43
2022/11/26 02:09:51;;;;;;;;;;;;;;;19.41;48.81;102282.69;5117485;28;19924;-41
2022/11/26 02:12:16;;;;;;;;;;;;;;;19.40;48.92;102279.09;5115940;28;19954;-43
2022/11/26 02:14:42;;;;;;;;;;;;;;;19.40;48.64;102284.63;5114546;28;19930;-42
2022/11/26 02:17:12;;;;;;;;;;;;;;;19.39;48.64;102274.66;5123808;28;19974;-41
2022/11/26 02:19:51;;;;;;;;;;;;;;;19.39;48.63;102277.41;5095996;28;20411;-40
2022/11/26 02:25:19;;;;;;;;;;;;;;;19.40;48.45;102281.84;5177419;27;19925;-44
2022/11/26 02:28:04;;;;;;;;;;;;;;;19.39;48.66;102285.72;5149103;27;20010;-43
2022/11/26 02:30:30;;;;;;;;;;;;;;;19.40;48.72;102284.63;5151072;27;20005;-41
2022/11/26 02:32:58;;;;;;;;;;;;;;;19.40;48.70;102292.06;5159422;27;20290;-41
2022/11/26 02:35:25;;;;;;;;;;;;;;;19.39;48.49;102287.63;5162238;27;19927;-41
2022/11/26 02:37:53;;;;;;;;;;;;;;;19.39;48.63;102285.72;5143716;27;20007;-41
2022/11/26 02:40:18;;;;;;;;;;;;;;;19.39;48.48;102277.41;5162864;27;19966;-41
2022/11/26 02:42:44;;;;;;;;;;;;;;;19.39;48.83;102280.19;5144939;27;19927;-42
2022/11/26 02:45:12;;;;;;;;;;;;;;;19.39;48.63;102277.41;5156840;27;19938;-41
2022/11/26 02:47:38;;;;;;;;;;;;;;;19.39;48.82;102276.59;5138524;27;20010;-41
2022/11/26 02:50:06;;;;;;;;;;;;;;;19.39;48.61;102274.66;5165620;27;19927;-42
2022/11/26 02:52:31;;;;;;;;;;;;;;;19.39;48.80;102266.38;5148105;27;19974;-43
2022/11/26 02:54:57;;;;;;;;;;;;;;;19.39;48.84;102277.41;5167317;27;19927;-43
2022/11/26 02:57:23;;;;;;;;;;;;;;;19.39;48.61;102280.19;5167967;27;19934;-42
2022/11/26 02:59:48;;;;;;;;;;;;;;;19.39;48.79;102284.88;5145882;27;20011;-42
2022/11/26 03:02:33;;;;;;;;;;;;;;;19.40;48.53;102283.78;5158154;27;19931;-42
2022/11/26 03:04:58;;;;;;;;;;;;;;;19.38;48.69;102286.78;5134257;27;19963;-42
2022/11/26 03:07:24;;;;;;;;;;;;;;;19.40;48.64;102286.53;5130412;27;19927;-41
2022/11/26 03:09:51;;;;;;;;;;;;;;;19.39;48.78;102293.16;5152080;27;20311;-42
2022/11/26 03:12:16;;;;;;;;;;;;;;;19.39;48.53;102298.69;5133944;27;20014;-41
2022/11/26 03:14:42;;;;;;;;;;;;;;;19.38;48.83;102297.81;5155475;27;19966;-42
2022/11/26 03:17:08;;;;;;;;;;;;;;;19.39;48.58;102301.44;5151539;27;19931;-41
2022/11/26 03:19:33;;;;;;;;;;;;;;;19.39;48.71;102298.69;5155072;27;19930;-41
2022/11/26 03:21:59;;;;;;;;;;;;;;;19.39;48.67;102304.22;5151040;27;19941;-41
2022/11/26 03:24:24;;;;;;;;;;;;;;;19.38;48.50;102303.34;5153770;27;19923;-44
2022/11/26 03:26:50;;;;;;;;;;;;;;;19.39;48.79;102312.50;5151275;27;20432;-40
2022/11/26 03:29:15;;;;;;;;;;;;;;;19.39;48.50;102309.75;5151177;27;19923;-43
2022/11/26 03:31:41;;;;;;;;;;;;;;;19.39;48.61;102313.34;5151774;27;19930;-43
2022/11/26 03:34:07;;;;;;;;;;;;;;;19.39;48.57;102306.97;5154528;27;20397;-41
2022/11/26 03:36:32;;;;;;;;;;;;;;;19.39;48.73;102310.56;5136242;27;19964;-42
2022/11/26 03:38:58;;;;;;;;;;;;;;;19.39;48.67;102318.03;5145082;27;19924;-43
2022/11/26 03:41:23;;;;;;;;;;;;;;;19.38;48.57;102322.69;5134233;27;20303;-42
2022/11/26 03:43:49;;;;;;;;;;;;;;;19.39;48.47;102324.38;5142719;27;19923;-41
2022/11/26 03:46:14;;;;;;;;;;;;;;;19.39;48.88;102335.44;5136340;27;19931;-41
2022/11/26 03:48:40;;;;;;;;;;;;;;;19.39;48.50;102334.59;5136030;27;19984;-40
2022/11/26 03:51:05;;;;;;;;;;;;;;;19.38;48.46;102344.78;5133175;27;19923;-41
2022/11/26 03:53:31;;;;;;;;;;;;;;;19.38;48.83;102350.31;5137826;27;19923;-42
2022/11/26 03:55:57;;;;;;;;;;;;;;;19.39;48.64;102351.19;5116176;27;19923;-41
2022/11/26 03:58:22;;;;;;;;;;;;;;;19.39;48.53;102349.25;5145964;27;19924;-41
2022/11/26 04:00:48;;;;;;;;;;;;;;;19.39;48.44;102351.19;5139909;27;19924;-43
2022/11/26 04:03:13;;;;;;;;;;;;;;;19.38;48.88;102358.59;5138314;27;19928;-43
2022/11/26 04:05:39;;;;;;;;;;;;;;;19.38;48.63;102355.00;5135728;27;19924;-42
2022/11/26 04:08:04;;;;;;;;;;;;;;;19.38;48.63;102366.06;5121027;27;19927;-43
2022/11/26 04:10:30;;;;;;;;;;;;;;;19.38;48.73;102366.88;5136358;27;20309;-43
2022/11/26 04:12:56;;;;;;;;;;;;;;;19.39;48.84;102370.53;5140597;27;19929;-40
2022/11/26 04:15:21;;;;;;;;;;;;;;;19.39;48.76;102367.75;5137528;27;19976;-41
2022/11/26 04:17:47;;;;;;;;;;;;;;;19.38;48.72;102377.09;5134642;27;19924;-41
2022/11/26 04:20:12;;;;;;;;;;;;;;;19.38;48.50;102382.63;5140978;27;20161;-43
2022/11/26 04:22:38;;;;;;;;;;;;;;;19.38;48.48;102383.47;5118788;27;19950;-42
2022/11/26 04:25:04;;;;;;;;;;;;;;;19.38;48.65;102385.38;5140152;27;19968;-43
2022/11/26 04:27:29;;;;;;;;;;;;;;;19.38;48.71;102388.16;5132068;27;19945;-42
2022/11/26 04:29:55;;;;;;;;;;;;;;;19.37;48.55;102392.84;5135891;27;19923;-43
2022/11/26 04:32:20;;;;;;;;;;;;;;;19.38;48.55;102402.81;5134701;27;19923;-41
2022/11/26 04:34:46;;;;;;;;;;;;;;;19.38;48.55;102396.44;5137112;27;20367;-41
2022/11/26 04:37:11;;;;;;;;;;;;;;;19.39;48.44;102395.38;5134194;27;19947;-41
2022/11/26 04:39:37;;;;;;;;;;;;;;;19.38;48.61;102396.44;5135395;27;19931;-41
2022/11/26 04:42:02;;;;;;;;;;;;;;;19.38;48.44;102400.03;5133577;27;20319;-43
2022/11/26 04:44:28;;;;;;;;;;;;;;;19.38;48.38;102401.97;5133374;27;19923;-41
2022/11/26 04:46:53;;;;;;;;;;;;;;;19.38;48.55;102401.97;5133359;27;19931;-42
2022/11/26 04:49:19;;;;;;;;;;;;;;;19.38;48.48;102399.19;5134444;27;19927;-43
2022/11/26 04:51:45;;;;;;;;;;;;;;;19.38;48.72;102405.56;5137822;27;19927;-41
2022/11/26 04:54:10;;;;;;;;;;;;;;;19.38;48.47;102401.97;5137087;27;20344;-43
2022/11/26 04:56:38;;;;;;;;;;;;;;;19.37;48.57;102409.41;5139453;27;19924;-42
2022/11/26 04:59:04;;;;;;;;;;;;;;;19.38;48.55;102419.38;5133332;27;19968;-43
2022/11/26 05:01:30;;;;;;;;;;;;;;;19.38;48.46;102416.63;5143738;27;19927;-40
2022/11/26 05:03:55;;;;;;;;;;;;;;;19.38;48.58;102424.06;5135256;27;19937;-41
2022/11/26 05:06:21;;;;;;;;;;;;;;;19.38;48.74;102433.19;5115708;27;19923;-41
2022/11/26 05:08:46;;;;;;;;;;;;;;;19.37;48.79;102427.91;5121616;27;20367;-41
2022/11/26 05:11:12;;;;;;;;;;;;;;;19.38;48.52;102432.34;5138695;27;19942;-42
2022/11/26 05:13:38;;;;;;;;;;;;;;;19.37;48.68;102437.03;5141031;27;19923;-41
2022/11/26 05:16:03;;;;;;;;;;;;;;;19.38;48.80;102437.88;5140958;27;20359;-41
2022/11/26 05:18:29;;;;;;;;;;;;;;;19.38;48.83;102430.44;5145399;27;19923;-41
2022/11/26 05:20:54;;;;;;;;;;;;;;;19.37;48.63;102428.75;5138520;27;19932;-41
2022/11/26 05:23:20;;;;;;;;;;;;;;;19.38;48.54;102437.88;5136785;27;19932;-42
2022/11/26 05:25:46;;;;;;;;;;;;;;;19.38;48.64;102440.63;5139653;27;19927;-43
2022/11/26 05:28:12;;;;;;;;;;;;;;;19.37;48.90;102434.28;5135789;27;20256;-42
2022/11/26 05:30:38;;;;;;;;;;;;;;;19.37;48.55;102439.81;5115763;27;19930;-44
2022/11/26 05:33:03;;;;;;;;;;;;;;;19.38;48.59;102441.47;5133926;27;20402;-41
2022/11/26 05:35:29;;;;;;;;;;;;;;;19.37;48.53;102441.72;5135517;27;19969;-41
2022/11/26 05:37:54;;;;;;;;;;;;;;;19.37;48.65;102438.97;5135092;27;19933;-43
2022/11/26 05:40:20;;;;;;;;;;;;;;;19.38;48.70;102446.16;5138986;27;19927;-42
2022/11/26 05:42:45;;;;;;;;;;;;;;;19.38;48.48;102447.00;5140126;27;20170;-41
2022/11/26 05:45:11;;;;;;;;;;;;;;;19.38;48.49;102457.22;5138526;27;19939;-42
2022/11/26 05:47:36;;;;;;;;;;;;;;;19.37;48.40;102450.03;5136791;27;20340;-41
2022/11/26 05:50:02;;;;;;;;;;;;;;;19.36;48.56;102451.94;5136660;27;19942;-41
2022/11/26 05:52:28;;;;;;;;;;;;;;;19.37;48.67;102453.63;5140706;27;20022;-42
2022/11/26 05:54:53;;;;;;;;;;;;;;;19.38;48.35;102454.47;5138194;27;19927;-44
2022/11/26 05:57:19;;;;;;;;;;;;;;;19.38;48.43;102448.94;5143248;27;19927;-41
2022/11/26 05:59:45;;;;;;;;;;;;;;;19.37;48.57;102447.25;5135357;27;19934;-41
2022/11/26 06:02:11;;;;;;;;;;;;;;;19.37;48.76;102441.72;5138424;27;20410;-40
2022/11/26 06:04:37;;;;;;;;;;;;;;;19.38;48.49;102459.97;5134304;27;19923;-42
2022/11/26 06:07:03;;;;;;;;;;;;;;;19.37;48.60;102461.06;5133077;27;19930;-41
2022/11/26 06:09:28;;;;;;;;;;;;;;;19.37;48.30;102458.31;5136396;27;19927;-41
2022/11/26 06:11:54;;;;;;;;;;;;;;;19.37;48.73;102459.16;5135590;27;19923;-42
2022/11/26 06:14:20;;;;;;;;;;;;;;;19.37;48.61;102472.97;5139357;27;20351;-41
2022/11/26 06:16:45;;;;;;;;;;;;;;;19.37;48.57;102472.13;5138732;27;19932;-43
2022/11/26 06:19:11;;;;;;;;;;;;;;;19.37;48.72;102466.59;5120450;27;19931;-41
2022/11/26 06:21:36;;;;;;;;;;;;;;;19.37;48.75;102463.84;5139739;27;20263;-41
2022/11/26 06:24:02;;;;;;;;;;;;;;;19.38;48.55;102471.03;5133530;27;19942;-43
2022/11/26 06:26:27;;;;;;;;;;;;;;;19.36;48.65;102471.28;5139372;27;20280;-42
2022/11/26 06:28:53;;;;;;;;;;;;;;;19.37;48.71;102477.66;5132929;27;20402;-41
2022/11/26 06:31:19;;;;;;;;;;;;;;;19.37;48.55;102474.88;5136333;27;20345;-41
2022/11/26 06:33:44;;;;;;;;;;;;;;;19.37;48.66;102478.47;5136682;27;19980;-42
2022/11/26 06:36:10;;;;;;;;;;;;;;;19.37;48.34;102477.66;5137453;27;20069;-42
2022/11/26 06:38:35;;;;;;;;;;;;;;;19.38;48.48;102482.09;5133444;27;19923;-42
2022/11/26 06:41:02;;;;;;;;;;;;;;;19.37;48.49;102474.88;5137131;27;19924;-42
2022/11/26 06:43:28;;;;;;;;;;;;;;;19.37;48.48;102477.66;5136875;27;20396;-40
2022/11/26 06:45:53;;;;;;;;;;;;;;;19.37;48.65;102481.25;5111252;27;21445;-41
2022/11/26 06:48:23;;;;;;;;;;;;;;;19.36;48.71;102482.34;5131581;27;19947;-41
2022/11/26 06:50:49;;;;;;;;;;;;;;;19.37;48.80;102485.94;5119908;27;19996;-42
2022/11/26 06:53:14;;;;;;;;;;;;;;;19.37;48.64;102492.28;5116466;27;19946;-41
2022/11/26 06:55:40;;;;;;;;;;;;;;;19.36;48.58;102490.63;5122892;27;19934;-42
2022/11/26 06:58:05;;;;;;;;;;;;;;;19.36;48.73;102487.88;5141014;27;20282;-41
2022/11/26 07:00:31;;;;;;;;;;;;;;;19.37;48.45;102496.97;5138161;27;19923;-41
2022/11/26 07:02:56;;;;;;;;;;;;;;;19.37;48.63;102503.34;5130103;27;19930;-42
2022/11/26 07:05:22;;;;;;;;;;;;;;;19.37;48.46;102505.28;5135679;27;19976;-42
2022/11/26 07:07:48;;;;;;;;;;;;;;;19.36;48.28;102512.72;5137186;27;19924;-43
2022/11/26 07:10:13;;;;;;;;;;;;;;;19.36;48.68;102518.25;5137473;27;20378;-42
2022/11/26 07:12:39;;;;;;;;;;;;;;;19.35;48.63;102513.81;5136254;27;19924;-41
2022/11/26 07:15:05;;;;;;;;;;;;;;;19.37;48.69;102521.84;5135264;27;19924;-42
2022/11/26 07:17:30;;;;;;;;;;;;;;;19.36;48.54;102525.69;5135323;27;19923;-43
2022/11/26 07:19:56;;;;;;;;;;;;;;;19.36;48.51;102537.59;5141057;27;20198;-41
2022/11/26 07:22:21;;;;;;;;;;;;;;;19.37;48.69;102538.44;5138985;27;19923;-41
2022/11/26 07:24:47;;;;;;;;;;;;;;;19.36;48.36;102540.34;5140496;27;19935;-42
2022/11/26 07:27:12;;;;;;;;;;;;;;;19.36;48.54;102542.28;5133648;27;20395;-42
2022/11/26 07:29:38;;;;;;;;;;;;;;;19.36;48.76;102543.13;5142160;27;19927;-42
2022/11/26 07:32:04;;;;;;;;;;;;;;;19.36;48.58;102547.81;5140278;27;19928;-42
2022/11/26 07:34:29;;;;;;;;;;;;;;;19.37;48.48;102549.47;5119696;27;20292;-43
2022/11/26 07:36:55;;;;;;;;;;;;;;;19.36;48.71;102543.13;5137894;27;20136;-43
2022/11/26 07:39:23;;;;;;;;;;;;;;;19.35;48.46;102541.44;5139035;27;19924;-41
2022/11/26 07:41:49;;;;;;;;;;;;;;;19.36;48.51;102539.50;5135123;27;19932;-41
2022/11/26 07:44:14;;;;;;;;;;;;;;;19.37;48.48;102541.19;5144391;27;19939;-41
2022/11/26 07:46:40;;;;;;;;;;;;;;;19.36;48.49;102540.34;5142104;27;20345;-41
2022/11/26 07:49:06;;;;;;;;;;;;;;;19.36;48.60;102539.50;5144137;27;19931;-43
2022/11/26 07:55:24;;;;;;;;;;;;;;;19.36;48.71;102536.75;5134813;27;20425;-44
2022/11/26 07:57:50;;;;;;;;;;;;;;;19.36;48.48;102536.75;5139610;27;20020;-41
2022/11/26 08:00:15;;;;;;;;;;;;;;;19.36;48.61;102545.03;5133218;27;19923;-43
2022/11/26 08:02:41;;;;;;;;;;;;;;;19.36;48.76;102547.81;5138701;27;19930;-43
2022/11/26 08:05:07;;;;;;;;;;;;;;;19.35;48.63;102548.91;5138235;27;19930;-46
2022/11/26 08:07:33;;;;;;;;;;;;;;;19.36;48.64;102550.56;5136346;27;19923;-44
2022/11/26 08:09:59;;;;;;;;;;;;;;;19.35;48.31;102546.97;5121948;27;19923;-41
2022/11/26 08:12:24;;;;;;;;;;;;;;;19.35;48.56;102552.50;5139820;27;20359;-42
2022/11/26 08:14:50;;;;;;;;;;;;;;;19.36;48.49;102554.16;5135862;27;19923;-42
2022/11/26 08:17:15;;;;;;;;;;;;;;;19.35;48.38;102548.91;5137254;27;19979;-42
2022/11/26 08:19:41;;;;;;;;;;;;;;;19.36;48.64;102554.16;5142994;27;19946;-43
2022/11/26 08:22:07;;;;;;;;;;;;;;;19.36;48.64;102545.03;5136880;27;19930;-41
2022/11/26 08:24:32;;;;;;;;;;;;;;;19.36;48.73;102548.63;5142735;27;20315;-40
2022/11/26 08:26:58;;;;;;;;;;;;;;;19.35;48.52;102549.72;5140066;27;19923;-41
2022/11/26 08:29:24;;;;;;;;;;;;;;;19.36;48.34;102558.84;5141507;27;20035;-43
2022/11/26 08:31:49;;;;;;;;;;;;;;;19.36;48.37;102558.84;5116894;27;19931;-44
2022/11/26 08:34:15;;;;;;;;;;;;;;;19.37;48.57;102560.53;5137987;27;20330;-42
2022/11/26 08:36:41;;;;;;;;;;;;;;;19.36;48.28;102553.31;5136416;27;19935;-41
2022/11/26 08:39:06;;;;;;;;;;;;;;;19.35;48.35;102558.03;5143127;27;20379;-41
2022/11/26 08:41:32;;;;;;;;;;;;;;;19.37;48.47;102560.53;5134165;27;20177;-42
2022/11/26 08:43:57;;;;;;;;;;;;;;;19.35;48.49;102565.47;5116377;27;20414;-41
2022/11/26 08:46:32;;;;;;;;;;;;;;;19.36;48.53;102567.97;5134582;27;20283;-41
2022/11/26 08:48:58;;;;;;;;;;;;;;;19.36;48.64;102572.66;5126982;27;20381;-40
2022/11/26 08:51:24;;;;;;;;;;;;;;;19.36;48.48;102567.13;5135988;27;19923;-43
2022/11/26 08:53:49;;;;;;;;;;;;;;;19.35;48.67;102569.06;5116735;27;19924;-41
2022/11/26 08:56:15;;;;;;;;;;;;;;;19.36;48.30;102570.75;5139821;27;19931;-41
2022/11/26 08:58:41;;;;;;;;;;;;;;;19.35;48.45;102577.34;5138056;27;19931;-41
2022/11/26 09:01:11;;;;;;;;;;;;;;;19.35;48.49;102573.75;5135504;27;19966;-41
2022/11/26 09:03:37;;;;;;;;;;;;;;;19.35;48.29;102591.16;5135519;27;19961;-43
2022/11/26 09:06:03;;;;;;;;;;;;;;;19.35;48.29;102593.94;5113243;27;19924;-42
2022/11/26 09:08:30;;;;;;;;;;;;;;;19.35;48.29;102591.16;5121234;27;20472;-41
2022/11/26 09:10:56;;;;;;;;;;;;;;;19.35;48.55;102587.56;5140642;27;19993;-41
2022/11/26 09:13:22;;;;;;;;;;;;;;;19.35;48.26;102596.69;5135279;27;20000;-40
2022/11/26 09:15:48;;;;;;;;;;;;;;;19.35;48.57;102591.16;5134727;27;19923;-40
2022/11/26 09:18:13;;;;;;;;;;;;;;;19.36;48.31;102586.47;5144668;27;19923;-41
2022/11/26 09:20:39;;;;;;;;;;;;;;;19.34;48.68;102589.47;5140152;27;20098;-42
2022/11/26 09:23:04;;;;;;;;;;;;;;;19.35;48.43;102591.16;5134630;27;19934;-40
2022/11/26 09:25:30;;;;;;;;;;;;;;;19.36;48.54;102592.00;5135324;27;19935;-41
2022/11/26 09:27:55;;;;;;;;;;;;;;;19.37;48.26;102593.69;5134910;27;19923;-42
2022/11/26 09:30:21;;;;;;;;;;;;;;;19.36;48.23;102597.53;5140167;27;19923;-41
2022/11/26 09:32:46;;;;;;;;;;;;;;;19.34;48.44;102592.22;5136930;27;20322;-41
2022/11/26 09:35:12;;;;;;;;;;;;;;;19.35;48.48;102593.09;5133417;27;19923;-41
2022/11/26 09:37:38;;;;;;;;;;;;;;;19.35;48.73;102593.09;5137082;27;19935;-40
2022/11/26 09:40:03;;;;;;;;;;;;;;;19.35;48.39;102598.63;5144881;27;19948;-43
2022/11/26 09:42:49;;;;;;;;;;;;;;;19.36;48.35;102600.28;5136587;27;20291;-41
2022/11/26 09:45:34;;;;;;;;;;;;;;;19.35;48.60;102602.22;5118306;27;20228;-40
2022/11/26 09:48:00;;;;;;;;;;;;;;;19.35;48.26;102598.63;5118812;27;19931;-39
2022/11/26 09:50:27;;;;;;;;;;;;;;;19.34;48.42;102594.16;5134909;27;20375;-41
2022/11/26 09:52:56;;;;;;;;;;;;;;;19.34;48.49;102594.16;5134090;27;20014;-42
2022/11/26 09:55:30;;;;;;;;;;;;;;;19.34;48.42;102597.75;5114586;28;19963;-42
2022/11/26 09:57:58;;;;;;;;;;;;;;;19.35;48.64;102598.63;5121163;27;19958;-40
2022/11/26 10:00:25;;;;;;;;;;;;;;;19.34;48.29;102594.16;5143337;27;20035;-42
2022/11/26 10:02:51;;;;;;;;;;;;;;;19.35;48.32;102601.38;5117762;27;19946;-42
2022/11/26 10:05:17;;;;;;;;;;;;;;;19.34;48.30;102597.75;5132120;27;20644;-41
2022/11/26 10:07:51;;;;;;;;;;;;;;;19.34;48.34;102595.00;5139422;27;19923;-42
2022/11/26 10:10:20;;;;;;;;;;;;;;;19.33;48.42;102601.59;5134390;27;19930;-41
2022/11/26 10:12:48;;;;;;;;;;;;;;;19.35;48.52;102604.16;5116089;27;19934;-41
2022/11/26 10:15:36;;;;;;;;;;;;;;;19.34;48.54;102596.91;5108499;27;20431;-41
2022/11/26 10:18:22;;;;;;;;;;;;;;;19.34;48.61;102591.38;5135882;27;19980;-43
2022/11/26 10:20:54;;;;;;;;;;;;;;;19.34;48.35;102600.50;5126808;27;20394;-43
2022/11/26 10:23:25;;;;;;;;;;;;;;;19.34;48.36;102599.69;5121239;27;19939;-41
2022/11/26 10:25:51;;;;;;;;;;;;;;;19.34;48.22;102606.03;5135169;27;19966;-44
2022/11/26 10:28:26;;;;;;;;;;;;;;;19.33;48.26;102612.66;5115863;27;19988;-42
2022/11/26 10:30:56;;;;;;;;;;;;;;;19.34;48.26;102614.31;5122898;27;19992;-41
2022/11/26 10:33:21;;;;;;;;;;;;;;;19.33;48.60;102607.13;5131963;27;19950;-40
2022/11/26 10:35:47;;;;;;;;;;;;;;;19.33;48.48;102598.84;5132444;27;19975;-41
2022/11/26 10:38:13;;;;;;;;;;;;;;;19.35;48.47;102598.63;5138538;27;19958;-40
2022/11/26 10:40:38;;;;;;;;;;;;;;;19.34;48.55;102600.50;5138313;27;20376;-41
2022/11/26 10:45:40;;;;;;;;;;;;;;;19.34;48.26;102592.22;5164291;27;19925;-42
2022/11/26 10:48:13;;;;;;;;;;;;;;;19.34;48.53;102591.38;5127615;27;19924;-42
2022/11/26 10:50:39;;;;;;;;;;;;;;;19.34;48.48;102592.22;5124605;27;20011;-41
2022/11/26 10:53:18;;;;;;;;;;;;;;;19.34;48.50;102596.91;5124532;27;20302;-40
2022/11/26 10:55:44;;;;;;;;;;;;;;;19.33;48.53;102592.47;5135470;27;20085;-41
2022/11/26 10:58:14;;;;;;;;;;;;;;;19.33;48.29;102592.47;5147557;27;19931;-44
2022/11/26 11:00:59;;;;;;;;;;;;;;;19.33;48.60;102593.31;5120142;27;20275;-42
2022/11/26 11:03:26;;;;;;;;;;;;;;;19.35;48.30;102590.34;5132616;27;20018;-41
2022/11/26 11:08:53;;;;;;;;;;;;;;;19.33;48.16;102571.22;5172849;27;19926;-42
2022/11/26 11:11:27;;;;;;;;;;;;;;;19.35;48.25;102591.16;5168899;27;19927;-44
2022/11/26 11:13:52;;;;;;;;;;;;;;;19.34;48.23;102577.56;5159562;27;19927;-41
2022/11/26 11:16:38;;;;;;;;;;;;;;;19.34;48.14;102585.88;5162504;27;19942;-42
2022/11/26 11:19:04;;;;;;;;;;;;;;;19.33;48.34;102579.50;5149875;27;19946;-41
2022/11/26 11:21:35;;;;;;;;;;;;;;;19.33;48.57;102581.44;5143085;27;19991;-43
2022/11/26 11:24:05;;;;;;;;;;;;;;;19.34;48.30;102588.63;5143221;27;19935;-43
2022/11/26 11:26:39;;;;;;;;;;;;;;;19.33;48.32;102585.03;5148758;27;19935;-41
2022/11/26 11:29:04;;;;;;;;;;;;;;;19.33;48.25;102576.75;5142727;27;20208;-43
2022/11/26 11:31:30;;;;;;;;;;;;;;;19.34;48.54;102580.34;5166221;27;20025;-42
2022/11/26 11:34:11;;;;;;;;;;;;;;;19.33;48.33;102575.91;5162813;27;20022;-45
2022/11/26 11:36:37;;;;;;;;;;;;;;;19.33;48.25;102582.25;5156580;27;19982;-41
2022/11/26 11:39:02;;;;;;;;;;;;;;;19.33;48.29;102568.44;5164979;27;19923;-41
2022/11/26 11:41:34;;;;;;;;;;;;;;;19.33;48.27;102579.50;5144548;27;20259;-40
2022/11/26 11:44:20;;;;;;;;;;;;;;;19.33;48.53;102575.91;5141379;27;19955;-40
2022/11/26 11:46:53;;;;;;;;;;;;;;;19.33;48.16;102573.97;5138924;27;20003;-40
2022/11/26 11:52:12;;;;;;;;;;;;;;;19.33;48.44;102568.44;5181955;27;20290;-40
2022/11/26 11:54:48;;;;;;;;;;;;;;;19.33;48.39;102567.63;5134016;27;19977;-40
2022/11/26 11:57:22;;;;;;;;;;;;;;;19.33;48.40;102565.69;5155596;27;19971;-41
2022/11/26 12:00:19;;;;;;;;;;;;;;;19.33;48.40;102560.16;5162301;27;20011;-41
2022/11/26 12:03:05;;;;;;;;;;;;;;;19.33;48.22;102562.94;5151286;27;19972;-40
2022/11/26 12:05:48;;;;;;;;;;;;;;;19.33;48.51;102571.22;5127753;27;19962;-43
2022/11/26 12:08:17;;;;;;;;;;;;;;;19.33;47.98;102565.69;5121146;27;19959;-40
2022/11/26 12:10:47;;;;;;;;;;;;;;;19.33;48.15;102568.44;5139628;27;20202;-41
2022/11/26 12:13:12;;;;;;;;;;;;;;;19.33;48.27;102567.63;5155389;27;19927;-41
2022/11/26 12:15:58;;;;;;;;;;;;;;;19.33;48.21;102562.94;5144591;27;19930;-41
2022/11/26 12:18:25;;;;;;;;;;;;;;;19.33;48.18;102578.66;5125257;27;19966;-40
2022/11/26 12:20:53;;;;;;;;;;;;;;;19.33;48.09;102562.94;5136310;27;20065;-41
2022/11/26 12:23:23;;;;;;;;;;;;;;;19.33;48.50;102567.63;5131027;27;19970;-42
2022/11/26 12:25:52;;;;;;;;;;;;;;;19.33;48.14;102570.38;5145900;27;19923;-40
2022/11/26 12:28:21;;;;;;;;;;;;;;;19.33;48.20;102562.09;5149896;27;19962;-40
2022/11/26 12:31:04;;;;;;;;;;;;;;;19.33;48.49;102564.84;5111509;27;20364;-43
2022/11/26 12:33:33;;;;;;;;;;;;;;;19.32;48.43;102564.00;5133556;27;20408;-41
2022/11/26 12:36:00;;;;;;;;;;;;;;;19.33;48.24;102567.63;5122663;27;20374;-42
2022/11/26 12:38:26;;;;;;;;;;;;;;;19.32;48.28;102566.78;5144296;27;20313;-40
2022/11/26 12:40:56;;;;;;;;;;;;;;;19.32;48.16;102560.41;5124606;27;20333;-40
2022/11/26 12:43:42;;;;;;;;;;;;;;;19.32;48.35;102561.25;5147103;27;19969;-43
2022/11/26 12:46:09;;;;;;;;;;;;;;;19.32;48.03;102560.41;5134628;27;19981;-43
2022/11/26 12:48:45;;;;;;;;;;;;;;;19.32;48.04;102561.25;5129743;27;19972;-42
2022/11/26 12:51:31;;;;;;;;;;;;;;;19.32;48.28;102564.00;5143106;27;20385;-40
2022/11/26 12:54:14;;;;;;;;;;;;;;;19.32;48.21;102557.66;5120818;27;19975;-40